createdAt,value
2017-07-02T14:40:26.571Z,3.08
2017-07-02T14:42:56.249Z,3.03
2017-07-02T14:45:25.756Z,2.95
2017-07-02T14:47:55.409Z,3.03
2017-07-02T14:50:24.927Z,2.50
2017-07-02T14:52:55.355Z,2.33
2017-07-02T14:55:24.869Z,2.55
2017-07-02T14:57:54.349Z,2.45
2017-07-02T15:00:23.882Z,2.45
2017-07-02T15:02:53.387Z,2.80
2017-07-02T15:05:22.875Z,2.70
2017-07-02T15:07:52.360Z,2.45
2017-07-02T15:10:21.822Z,2.35
2017-07-02T15:12:51.381Z,2.65
2017-07-02T15:15:20.896Z,2.50
2017-07-02T15:17:50.383Z,2.30
2017-07-02T15:20:19.903Z,2.50
2017-07-02T15:22:49.410Z,2.83
2017-07-02T15:25:18.929Z,2.65
2017-07-02T15:27:48.428Z,2.50
2017-07-02T15:30:18.024Z,2.50
2017-07-02T15:32:47.754Z,2.40
2017-07-02T15:35:17.256Z,1.90
2017-07-02T15:37:46.792Z,2.20
2017-07-02T15:40:16.387Z,1.67
2017-07-02T15:42:46.070Z,1.80
2017-07-02T15:45:15.583Z,2.20
2017-07-02T15:47:45.135Z,1.80
2017-07-02T15:50:14.625Z,1.73
2017-07-02T15:52:44.155Z,2.05
2017-07-02T15:55:13.657Z,2.03
2017-07-02T15:57:43.241Z,2.20
2017-07-02T16:00:12.738Z,2.10
2017-07-02T16:02:42.272Z,1.80
2017-07-02T16:05:11.794Z,1.80
2017-07-02T16:07:41.324Z,1.55
2017-07-02T16:10:10.872Z,1.90
2017-07-02T16:12:40.390Z,1.87
2017-07-02T16:15:09.938Z,1.50
2017-07-02T16:17:39.444Z,2.00
2017-07-02T16:20:08.940Z,1.27
2017-07-02T16:22:39.208Z,1.47
2017-07-02T16:25:08.741Z,1.90
2017-07-02T16:27:38.250Z,2.10
2017-07-02T16:30:07.771Z,2.10
2017-07-02T16:32:37.232Z,2.43
2017-07-02T16:35:06.839Z,1.80
2017-07-02T16:37:36.424Z,1.90
2017-07-02T16:40:05.900Z,2.03
2017-07-02T16:42:35.424Z,2.23
2017-07-02T16:45:04.916Z,1.90
2017-07-02T16:47:34.449Z,1.60
2017-07-02T16:50:04.069Z,1.90
2017-07-02T16:52:33.587Z,2.00
2017-07-02T16:55:03.106Z,2.03
2017-07-02T16:57:32.660Z,2.30
2017-07-02T17:00:02.327Z,2.37
2017-07-02T17:02:31.915Z,2.20
2017-07-02T17:05:01.446Z,2.00
2017-07-02T17:07:31.021Z,2.30
2017-07-02T17:10:00.600Z,2.13
2017-07-02T17:12:30.101Z,2.33
2017-07-02T17:14:59.583Z,2.10
2017-07-02T17:17:29.384Z,2.00
2017-07-02T17:19:58.888Z,2.17
2017-07-02T17:22:28.634Z,1.90
2017-07-02T17:24:58.137Z,2.13
2017-07-02T17:27:27.651Z,2.00
2017-07-02T17:29:57.127Z,1.80
2017-07-02T17:32:26.641Z,2.33
2017-07-02T17:34:56.154Z,1.80
2017-07-02T17:37:25.810Z,1.70
2017-07-02T17:39:55.340Z,1.70
2017-07-02T17:42:24.856Z,1.80
2017-07-02T17:44:54.398Z,2.03
2017-07-02T17:47:23.959Z,1.80
2017-07-02T17:49:53.464Z,2.10
2017-07-02T17:52:22.976Z,1.70
2017-07-02T17:54:52.491Z,2.03
2017-07-02T17:57:21.996Z,2.10
2017-07-02T17:59:51.540Z,1.90
2017-07-02T18:02:21.109Z,2.00
2017-07-02T18:04:51.483Z,2.00
2017-07-02T18:07:20.960Z,1.80
2017-07-02T18:09:50.519Z,2.03
2017-07-02T18:12:20.043Z,1.97
2017-07-02T18:14:49.565Z,2.00
2017-07-02T18:17:19.056Z,1.67
2017-07-02T18:19:48.557Z,1.90
2017-07-02T18:22:18.025Z,1.70
2017-07-02T18:24:47.529Z,1.73
2017-07-02T18:27:17.158Z,1.50
2017-07-02T18:29:46.714Z,1.60
2017-07-02T18:32:16.253Z,2.13
2017-07-02T18:34:45.930Z,2.37
2017-07-02T18:37:15.430Z,1.47
2017-07-02T18:39:44.898Z,1.80
2017-07-02T18:42:14.405Z,2.23
2017-07-02T18:44:44.011Z,2.57
2017-07-02T18:47:13.610Z,2.57
2017-07-02T18:49:43.107Z,2.50
2017-07-02T18:52:12.667Z,2.30
2017-07-02T18:54:42.213Z,2.23
2017-07-02T18:57:11.783Z,1.97
